Time;durP1;ratioP1;P1;durP2;ratioP2;P2;SDS_P1;SDS_P2;PMS_P1;PMS_P2;Temp;Humidity;BMP_temperature;BMP_pressure;BME280_temperature;BME280_humidity;BME280_pressure;Samples;Min_cycle;Max_cycle;Signal;HPM_P1;HPM_P2
2020/12/30 00:01:52;;;;;;;;;;;;;;;;;;5060289;28;6934;-50
2020/12/30 00:04:17;;;;;;;;;;;;;;;;;;5063052;28;9401;-54
2020/12/30 00:06:42;;;;;;;;;;;;;;;;;;5063420;28;9569;-51
2020/12/30 00:09:07;;;;;;;;;;;;;;;;;;5061321;28;10666;-53
2020/12/30 00:11:32;;;;;;;;;;;;;;;;;;5058848;28;10297;-53
2020/12/30 00:13:58;;;;;;;;;;;;;;;;;;5065580;28;4166;-53
2020/12/30 00:16:23;;;;;;;;;;;;;;;;;;5065019;28;13978;-53
2020/12/30 00:18:48;;;;;;;;;;;;;;;;;;5064698;28;15999;-53
2020/12/30 00:21:14;;;;;;;;;;;;;;;;;;5062245;28;10111;-49
2020/12/30 00:23:39;;;;;;;;;;;;;;;;;;5067242;28;10712;-56
2020/12/30 00:26:04;;;;;;;;;;;;;;;;;;5073265;28;4391;-51
2020/12/30 00:28:29;;;;;;;;;;;;;;;;;;5066981;28;7105;-54
2020/12/30 00:30:55;;;;;;;;;;;;;;;;;;5063936;28;13391;-55
2020/12/30 00:33:20;;;;;;;;;;;;;;;;;;5052091;28;16100;-52
2020/12/30 00:35:45;;;;;;;;;;;;;;;;;;5060755;28;9534;-51
2020/12/30 00:38:10;;;;;;;;;;;;;;;;;;5059283;28;3967;-52
2020/12/30 00:40:36;;;;;;;;;;;;;;;;;;5062244;28;16444;-56
2020/12/30 00:43:01;;;;;;;;;;;;;;;;;;5061338;28;12783;-51
2020/12/30 00:45:26;;;;;;;;;;;;;;;;;;5057799;28;13165;-52
2020/12/30 00:47:51;;;;;;;;;;;;;;;;;;5068846;28;14592;-51
2020/12/30 00:50:17;;;;;;;;;;;;;;;;;;5068584;28;15032;-52
2020/12/30 00:52:42;;;;;;;;;;;;;;;;;;5066729;28;6890;-51
2020/12/30 00:55:10;;;;;;;;;;;;;;;;;;5060959;28;13004;-52
2020/12/30 00:57:35;;;;;;;;;;;;;;;;;;5066817;28;9110;-53
2020/12/30 01:00:01;;;;;;;;;;;;;;;;;;5066192;28;10915;-53
2020/12/30 01:02:26;;;;;;;;;;;;;;;;;;5068770;28;7080;-50
2020/12/30 01:04:51;;;;;;;;;;;;;;;;;;5069416;28;6890;-57
2020/12/30 01:07:18;;;;;;;;;;;;;;;;;;5064671;28;11480;-54
2020/12/30 01:09:44;;;;;;;;;;;;;;;;;;5063257;28;15410;-51
2020/12/30 01:12:09;;;;;;;;;;;;;;;;;;5066648;28;15971;-54
2020/12/30 01:14:34;;;;;;;;;;;;;;;;;;5066254;28;8799;-52
2020/12/30 01:16:59;;;;;;;;;;;;;;;;;;5057051;28;4492;-52
2020/12/30 01:19:25;;;;;;;;;;;;;;;;;;5060199;28;15832;-49
2020/12/30 01:21:50;;;;;;;;;;;;;;;;;;5065862;28;16565;-52
2020/12/30 01:24:15;;;;;;;;;;;;;;;;;;5066363;28;8635;-50
2020/12/30 01:26:41;;;;;;;;;;;;;;;;;;5070951;28;14858;-52
2020/12/30 01:29:07;;;;;;;;;;;;;;;;;;5067508;28;4170;-52
2020/12/30 01:31:32;;;;;;;;;;;;;;;;;;5064680;28;13459;-56
2020/12/30 01:33:58;;;;;;;;;;;;;;;;;;5062840;28;13475;-53
2020/12/30 01:36:24;;;;;;;;;;;;;;;;;;5065195;28;15420;-55
2020/12/30 01:38:49;;;;;;;;;;;;;;;;;;5055604;28;8825;-54
2020/12/30 01:41:15;;;;;;;;;;;;;;;;;;5068440;28;5351;-51
2020/12/30 01:43:40;;;;;;;;;;;;;;;;;;5067652;28;6870;-53
2020/12/30 01:46:06;;;;;;;;;;;;;;;;;;5066014;28;6895;-52
2020/12/30 01:48:33;;;;;;;;;;;;;;;;;;5067376;28;14745;-52
2020/12/30 01:50:58;;;;;;;;;;;;;;;;;;5063812;28;11197;-51
2020/12/30 01:53:24;;;;;;;;;;;;;;;;;;5065895;28;8344;-50
2020/12/30 01:55:52;;;;;;;;;;;;;;;;;;5071961;28;6592;-53
2020/12/30 01:58:17;;;;;;;;;;;;;;;;;;5065000;28;9009;-55
2020/12/30 02:00:47;;;;;;;;;;;;;;;;;;5058957;28;9304;-50
2020/12/30 02:03:12;;;;;;;;;;;;;;;;;;5065921;28;15236;-50
2020/12/30 02:05:38;;;;;;;;;;;;;;;;;;5066087;28;8666;-56
2020/12/30 02:08:04;;;;;;;;;;;;;;;;;;5065272;28;4078;-49
2020/12/30 02:10:29;;;;;;;;;;;;;;;;;;5062422;28;15053;-54
2020/12/30 02:12:55;;;;;;;;;;;;;;;;;;5066585;28;14950;-51
2020/12/30 02:15:23;;;;;;;;;;;;;;;;;;5055121;28;14873;-49
2020/12/30 02:17:48;;;;;;;;;;;;;;;;;;5062574;28;14388;-56
2020/12/30 02:20:14;;;;;;;;;;;;;;;;;;5070267;28;4134;-53
2020/12/30 02:22:41;;;;;;;;;;;;;;;;;;5063262;28;7400;-52
2020/12/30 02:25:06;;;;;;;;;;;;;;;;;;5051815;28;16023;-51
2020/12/30 02:27:31;;;;;;;;;;;;;;;;;;5066866;28;13951;-55
2020/12/30 02:29:57;;;;;;;;;;;;;;;;;;5065006;28;16210;-53
2020/12/30 02:32:22;;;;;;;;;;;;;;;;;;5056421;28;15815;-54
2020/12/30 02:34:47;;;;;;;;;;;;;;;;;;5068238;28;9674;-50
2020/12/30 02:37:12;;;;;;;;;;;;;;;;;;5045869;28;14611;-49
2020/12/30 02:39:38;;;;;;;;;;;;;;;;;;5064597;28;9771;-50
2020/12/30 02:42:03;;;;;;;;;;;;;;;;;;5065950;28;7669;-55
2020/12/30 02:44:28;;;;;;;;;;;;;;;;;;5066204;28;10722;-50
2020/12/30 02:46:53;;;;;;;;;;;;;;;;;;5059385;28;6988;-53
2020/12/30 02:49:19;;;;;;;;;;;;;;;;;;5059641;28;14558;-52
2020/12/30 02:51:44;;;;;;;;;;;;;;;;;;5066349;28;8216;-53
2020/12/30 02:54:09;;;;;;;;;;;;;;;;;;5056390;28;15591;-55
2020/12/30 02:56:35;;;;;;;;;;;;;;;;;;5066040;28;7519;-51
2020/12/30 02:59:01;;;;;;;;;;;;;;;;;;5065049;28;3979;-54
2020/12/30 03:01:26;;;;;;;;;;;;;;;;;;5065694;28;5871;-53
2020/12/30 03:03:51;;;;;;;;;;;;;;;;;;5067409;28;15174;-51
2020/12/30 03:06:22;;;;;;;;;;;;;;;;;;5058295;28;15356;-50
2020/12/30 03:08:47;;;;;;;;;;;;;;;;;;5061338;28;13693;-56
2020/12/30 03:11:13;;;;;;;;;;;;;;;;;;5069151;28;3948;-56
2020/12/30 03:13:39;;;;;;;;;;;;;;;;;;5061872;28;14053;-55
2020/12/30 03:16:04;;;;;;;;;;;;;;;;;;5064538;28;14175;-54
2020/12/30 03:18:29;;;;;;;;;;;;;;;;;;5066018;28;9721;-53
2020/12/30 03:20:54;;;;;;;;;;;;;;;;;;5064734;28;17020;-51
2020/12/30 03:23:20;;;;;;;;;;;;;;;;;;5070263;28;6810;-51
2020/12/30 03:25:45;;;;;;;;;;;;;;;;;;5067530;28;9633;-52
2020/12/30 03:28:10;;;;;;;;;;;;;;;;;;5067757;28;12006;-51
2020/12/30 03:30:36;;;;;;;;;;;;;;;;;;5062187;28;16408;-52
2020/12/30 03:33:01;;;;;;;;;;;;;;;;;;5061999;28;14513;-52
2020/12/30 03:35:26;;;;;;;;;;;;;;;;;;5069145;28;10215;-52
2020/12/30 03:37:52;;;;;;;;;;;;;;;;;;5069759;28;7046;-52
2020/12/30 03:40:17;;;;;;;;;;;;;;;;;;5063047;28;5576;-49
2020/12/30 03:42:43;;;;;;;;;;;;;;;;;;5069996;28;11940;-52
2020/12/30 03:45:08;;;;;;;;;;;;;;;;;;5062107;28;15524;-49
2020/12/30 03:47:33;;;;;;;;;;;;;;;;;;5070026;28;15599;-51
2020/12/30 03:49:58;;;;;;;;;;;;;;;;;;5045683;28;1368;-51
2020/12/30 03:52:24;;;;;;;;;;;;;;;;;;5068398;28;14461;-52
2020/12/30 03:54:49;;;;;;;;;;;;;;;;;;5070145;28;6833;-53
2020/12/30 03:57:14;;;;;;;;;;;;;;;;;;5066945;28;11119;-52
2020/12/30 03:59:40;;;;;;;;;;;;;;;;;;5066978;28;12421;-55
2020/12/30 04:02:05;;;;;;;;;;;;;;;;;;5071633;28;3970;-55
2020/12/30 04:04:30;;;;;;;;;;;;;;;;;;5063283;28;16789;-54
2020/12/30 04:06:55;;;;;;;;;;;;;;;;;;5062688;28;15876;-55
2020/12/30 04:09:21;;;;;;;;;;;;;;;;;;5068345;28;9628;-52
2020/12/30 04:11:46;;;;;;;;;;;;;;;;;;5066710;28;13560;-53
2020/12/30 04:14:11;;;;;;;;;;;;;;;;;;5070153;28;4143;-52
2020/12/30 04:16:36;;;;;;;;;;;;;;;;;;5066599;28;6810;-53
2020/12/30 04:19:02;;;;;;;;;;;;;;;;;;5066011;28;10136;-51
2020/12/30 04:21:27;;;;;;;;;;;;;;;;;;5063008;28;16178;-53
2020/12/30 04:23:53;;;;;;;;;;;;;;;;;;5067390;28;16269;-51
2020/12/30 04:26:19;;;;;;;;;;;;;;;;;;5069261;28;14839;-52
2020/12/30 04:28:44;;;;;;;;;;;;;;;;;;5062785;28;12004;-51
2020/12/30 04:31:10;;;;;;;;;;;;;;;;;;5053322;28;14314;-51
2020/12/30 04:33:35;;;;;;;;;;;;;;;;;;5065024;28;8427;-54
2020/12/30 04:36:01;;;;;;;;;;;;;;;;;;5059522;28;9029;-52
2020/12/30 04:38:26;;;;;;;;;;;;;;;;;;5056832;28;13293;-52
2020/12/30 04:40:54;;;;;;;;;;;;;;;;;;5064419;28;4095;-53
2020/12/30 04:43:19;;;;;;;;;;;;;;;;;;5063838;28;13042;-51
2020/12/30 04:45:45;;;;;;;;;;;;;;;;;;5069297;28;14454;-53
2020/12/30 04:48:10;;;;;;;;;;;;;;;;;;5068068;28;12838;-51
2020/12/30 04:50:35;;;;;;;;;;;;;;;;;;5058325;28;9951;-51
2020/12/30 04:53:01;;;;;;;;;;;;;;;;;;5070670;28;4146;-53
2020/12/30 04:55:31;;;;;;;;;;;;;;;;;;5063729;28;12506;-55
2020/12/30 04:58:06;;;;;;;;;;;;;;;;;;5063787;28;14696;-50
2020/12/30 05:00:33;;;;;;;;;;;;;;;;;;5061631;28;11496;-53
2020/12/30 05:03:03;;;;;;;;;;;;;;;;;;5055537;28;14124;-49
2020/12/30 05:05:28;;;;;;;;;;;;;;;;;;5065063;28;14935;-52
2020/12/30 05:07:55;;;;;;;;;;;;;;;;;;5065812;28;7019;-55
2020/12/30 05:10:21;;;;;;;;;;;;;;;;;;5060497;28;13337;-50
2020/12/30 05:12:46;;;;;;;;;;;;;;;;;;5067626;28;14720;-53
2020/12/30 05:15:11;;;;;;;;;;;;;;;;;;5059711;28;10159;-53
2020/12/30 05:17:38;;;;;;;;;;;;;;;;;;5067187;28;13957;-51
2020/12/30 05:20:08;;;;;;;;;;;;;;;;;;5062126;28;3946;-51
2020/12/30 05:22:33;;;;;;;;;;;;;;;;;;5065512;28;13053;-51
2020/12/30 05:25:01;;;;;;;;;;;;;;;;;;5069461;28;11513;-54
2020/12/30 05:27:27;;;;;;;;;;;;;;;;;;5057225;28;13990;-53
2020/12/30 05:29:52;;;;;;;;;;;;;;;;;;5065550;28;14375;-54
2020/12/30 05:32:18;;;;;;;;;;;;;;;;;;5069132;28;3896;-52
2020/12/30 05:34:44;;;;;;;;;;;;;;;;;;5066498;28;9454;-52
2020/12/30 05:37:14;;;;;;;;;;;;;;;;;;5067448;28;16783;-50
2020/12/30 05:39:40;;;;;;;;;;;;;;;;;;5061448;28;11521;-51
2020/12/30 05:42:08;;;;;;;;;;;;;;;;;;5061863;28;14635;-51
2020/12/30 05:44:33;;;;;;;;;;;;;;;;;;5047814;28;15709;-48
2020/12/30 05:47:08;;;;;;;;;;;;;;;;;;5068450;28;3960;-55
2020/12/30 05:49:34;;;;;;;;;;;;;;;;;;5065598;28;15686;-55
2020/12/30 05:52:09;;;;;;;;;;;;;;;;;;5064157;28;11180;-55
2020/12/30 05:54:35;;;;;;;;;;;;;;;;;;5056995;28;11117;-49
2020/12/30 05:57:00;;;;;;;;;;;;;;;;;;5059532;28;14464;-50
2020/12/30 05:59:29;;;;;;;;;;;;;;;;;;5060467;28;8716;-55
2020/12/30 06:01:55;;;;;;;;;;;;;;;;;;5068692;28;6292;-53
2020/12/30 06:04:21;;;;;;;;;;;;;;;;;;5064452;28;14983;-51
2020/12/30 06:06:47;;;;;;;;;;;;;;;;;;5060977;28;14137;-54
2020/12/30 06:09:15;;;;;;;;;;;;;;;;;;5063613;28;10505;-53
2020/12/30 06:11:48;;;;;;;;;;;;;;;;;;5066593;28;8748;-53
2020/12/30 06:14:16;;;;;;;;;;;;;;;;;;5065102;28;4210;-54
2020/12/30 06:16:43;;;;;;;;;;;;;;;;;;5063918;28;7709;-57
2020/12/30 06:19:10;;;;;;;;;;;;;;;;;;5065071;28;13187;-53
2020/12/30 06:21:39;;;;;;;;;;;;;;;;;;5064368;28;14367;-53
2020/12/30 06:24:10;;;;;;;;;;;;;;;;;;5066490;28;15883;-50
2020/12/30 06:26:37;;;;;;;;;;;;;;;;;;5063205;28;8048;-54
2020/12/30 06:29:08;;;;;;;;;;;;;;;;;;5069151;28;4245;-53
2020/12/30 06:31:40;;;;;;;;;;;;;;;;;;5063747;28;15741;-54
2020/12/30 06:34:06;;;;;;;;;;;;;;;;;;5062077;28;10065;-49
2020/12/30 06:36:31;;;;;;;;;;;;;;;;;;5066358;28;6823;-51
2020/12/30 06:38:56;;;;;;;;;;;;;;;;;;5062192;28;15987;-52
2020/12/30 06:41:21;;;;;;;;;;;;;;;;;;5062125;28;12977;-50
2020/12/30 06:43:48;;;;;;;;;;;;;;;;;;5066425;28;9955;-52
2020/12/30 06:46:28;;;;;;;;;;;;;;;;;;5065664;28;14320;-54
2020/12/30 06:48:53;;;;;;;;;;;;;;;;;;5059218;28;8972;-54
2020/12/30 06:51:19;;;;;;;;;;;;;;;;;;5055754;28;14564;-53
2020/12/30 06:53:51;;;;;;;;;;;;;;;;;;5067023;28;14774;-49
2020/12/30 06:56:34;;;;;;;;;;;;;;;;;;5068118;28;3849;-53
2020/12/30 06:59:00;;;;;;;;;;;;;;;;;;5068861;28;3931;-52
2020/12/30 07:01:25;;;;;;;;;;;;;;;;;;5066339;28;9449;-51
2020/12/30 07:03:50;;;;;;;;;;;;;;;;;;5067343;28;15650;-52
2020/12/30 07:06:26;;;;;;;;;;;;;;;;;;5062277;28;14189;-49
2020/12/30 07:08:52;;;;;;;;;;;;;;;;;;5066026;28;14924;-51
2020/12/30 07:11:38;;;;;;;;;;;;;;;;;;5070898;28;3880;-50
2020/12/30 07:14:07;;;;;;;;;;;;;;;;;;5056409;28;4297;-53
2020/12/30 07:16:33;;;;;;;;;;;;;;;;;;5062587;28;9444;-53
2020/12/30 07:18:58;;;;;;;;;;;;;;;;;;5058906;28;12666;-49
2020/12/30 07:21:23;;;;;;;;;;;;;;;;;;5060714;28;15137;-53
2020/12/30 07:23:49;;;;;;;;;;;;;;;;;;5063994;28;13578;-53
2020/12/30 07:26:15;;;;;;;;;;;;;;;;;;5058167;28;3895;-50
2020/12/30 07:28:45;;;;;;;;;;;;;;;;;;5066452;28;7193;-54
2020/12/30 07:31:10;;;;;;;;;;;;;;;;;;5063609;28;13889;-49
2020/12/30 07:33:39;;;;;;;;;;;;;;;;;;5064550;28;15402;-56
2020/12/30 07:36:05;;;;;;;;;;;;;;;;;;5070389;28;15059;-53
2020/12/30 07:38:32;;;;;;;;;;;;;;;;;;5065481;28;13049;-52
2020/12/30 07:41:07;;;;;;;;;;;;;;;;;;5062309;28;9539;-54
2020/12/30 07:43:46;;;;;;;;;;;;;;;;;;5065746;28;8500;-51
2020/12/30 07:46:21;;;;;;;;;;;;;;;;;;5066671;28;14965;-51
2020/12/30 07:48:47;;;;;;;;;;;;;;;;;;5065697;28;16301;-52
2020/12/30 07:51:13;;;;;;;;;;;;;;;;;;5050295;28;15516;-54
2020/12/30 07:53:38;;;;;;;;;;;;;;;;;;5067218;28;12734;-54
2020/12/30 07:56:03;;;;;;;;;;;;;;;;;;5071876;28;4137;-52
2020/12/30 07:58:29;;;;;;;;;;;;;;;;;;5066461;28;15450;-57
2020/12/30 08:00:54;;;;;;;;;;;;;;;;;;5069202;28;10283;-54
2020/12/30 08:03:20;;;;;;;;;;;;;;;;;;5068017;28;14405;-53
2020/12/30 08:05:46;;;;;;;;;;;;;;;;;;5050755;28;10787;-52
2020/12/30 08:08:12;;;;;;;;;;;;;;;;;;5068547;28;4618;-50
2020/12/30 08:10:38;;;;;;;;;;;;;;;;;;5068451;28;16101;-53
2020/12/30 08:13:06;;;;;;;;;;;;;;;;;;5068092;28;9055;-52
2020/12/30 08:15:32;;;;;;;;;;;;;;;;;;5062083;28;7439;-52
2020/12/30 08:17:59;;;;;;;;;;;;;;;;;;5060493;28;7085;-54
2020/12/30 08:20:24;;;;;;;;;;;;;;;;;;5068701;28;12485;-53
2020/12/30 08:22:55;;;;;;;;;;;;;;;;;;5068677;28;9504;-50
2020/12/30 08:25:20;;;;;;;;;;;;;;;;;;5067252;28;12727;-56
2020/12/30 08:27:47;;;;;;;;;;;;;;;;;;5070922;28;14477;-51
2020/12/30 08:30:12;;;;;;;;;;;;;;;;;;5068241;28;10681;-52
2020/12/30 08:32:38;;;;;;;;;;;;;;;;;;5067662;28;10449;-53
2020/12/30 08:35:08;;;;;;;;;;;;;;;;;;5070280;28;4294;-53
2020/12/30 08:37:37;;;;;;;;;;;;;;;;;;5068498;28;14174;-55
2020/12/30 08:40:02;;;;;;;;;;;;;;;;;;5068613;28;16527;-53
2020/12/30 08:43:00;;;;;;;;;;;;;;;;;;5058079;28;7515;-54
2020/12/30 08:45:32;;;;;;;;;;;;;;;;;;4972800;28;11677;-50
2020/12/30 08:47:58;;;;;;;;;;;;;;;;;;4966731;28;14133;-51
2020/12/30 08:50:25;;;;;;;;;;;;;;;;;;4961389;28;8121;-51
2020/12/30 08:52:51;;;;;;;;;;;;;;;;;;4968731;28;10001;-51
2020/12/30 08:55:16;;;;;;;;;;;;;;;;;;4964660;28;14499;-51
2020/12/30 08:57:43;;;;;;;;;;;;;;;;;;4958388;28;13965;-51
2020/12/30 09:00:18;;;;;;;;;;;;;;;;;;4979088;28;9132;-53
2020/12/30 09:02:45;;;;;;;;;;;;;;;;;;4966629;28;9522;-53
2020/12/30 09:05:10;;;;;;;;;;;;;;;;;;4953963;28;4259;-56
2020/12/30 09:07:36;;;;;;;;;;;;;;;;;;4968384;28;7756;-54
2020/12/30 09:10:05;;;;;;;;;;;;;;;;;;4962833;28;16031;-51
2020/12/30 09:12:30;;;;;;;;;;;;;;;;;;4964890;28;11132;-52
2020/12/30 09:14:55;;;;;;;;;;;;;;;;;;4968975;28;9435;-51
2020/12/30 09:17:21;;;;;;;;;;;;;;;;;;4968009;28;1417;-54
2020/12/30 09:19:46;;;;;;;;;;;;;;;;;;4966152;28;7581;-51
2020/12/30 09:22:12;;;;;;;;;;;;;;;;;;5065825;28;14532;-54
2020/12/30 09:24:38;;;;;;;;;;;;;;;;;;5068069;28;8056;-54
2020/12/30 09:27:22;;;;;;;;;;;;;;;;;;5074879;28;14550;-52
2020/12/30 09:30:07;;;;;;;;;;;;;;;;;;5069181;28;11798;-52
2020/12/30 09:32:32;;;;;;;;;;;;;;;;;;5064319;28;11057;-52
2020/12/30 09:34:59;;;;;;;;;;;;;;;;;;5068836;28;9548;-52
2020/12/30 09:37:25;;;;;;;;;;;;;;;;;;5068154;28;9584;-57
2020/12/30 09:40:01;;;;;;;;;;;;;;;;;;5066826;28;9728;-53
2020/12/30 09:42:26;;;;;;;;;;;;;;;;;;5077426;28;13571;-53
2020/12/30 09:44:51;;;;;;;;;;;;;;;;;;5067443;28;13509;-50
2020/12/30 09:47:16;;;;;;;;;;;;;;;;;;5068399;28;4170;-53
2020/12/30 09:49:42;;;;;;;;;;;;;;;;;;5066443;28;8340;-56
2020/12/30 09:52:07;;;;;;;;;;;;;;;;;;5069066;28;12369;-50
2020/12/30 09:54:32;;;;;;;;;;;;;;;;;;5064599;28;11600;-53
2020/12/30 09:56:57;;;;;;;;;;;;;;;;;;5062421;28;14163;-52
2020/12/30 09:59:23;;;;;;;;;;;;;;;;;;5069064;28;1210;-56
2020/12/30 10:01:48;;;;;;;;;;;;;;;;;;5064056;28;7782;-52
2020/12/30 10:04:14;;;;;;;;;;;;;;;;;;5066140;28;11751;-55
2020/12/30 10:06:39;;;;;;;;;;;;;;;;;;5054914;28;14753;-50
2020/12/30 10:09:04;;;;;;;;;;;;;;;;;;5066011;28;10171;-53
2020/12/30 10:11:30;;;;;;;;;;;;;;;;;;5058753;28;6896;-54
2020/12/30 10:13:55;;;;;;;;;;;;;;;;;;5064097;28;7183;-54
2020/12/30 10:16:20;;;;;;;;;;;;;;;;;;5066769;28;15201;-55
2020/12/30 10:18:45;;;;;;;;;;;;;;;;;;5066409;28;9492;-51
2020/12/30 10:21:11;;;;;;;;;;;;;;;;;;5064148;28;13934;-55
2020/12/30 10:23:36;;;;;;;;;;;;;;;;;;5057543;28;8540;-54
2020/12/30 10:26:01;;;;;;;;;;;;;;;;;;5067388;28;10417;-52
2020/12/30 10:28:26;;;;;;;;;;;;;;;;;;5066077;28;11358;-52
2020/12/30 10:30:52;;;;;;;;;;;;;;;;;;5067878;28;11357;-52
2020/12/30 10:33:17;;;;;;;;;;;;;;;;;;5053025;28;13898;-54
2020/12/30 10:35:42;;;;;;;;;;;;;;;;;;5066868;28;13393;-53
2020/12/30 10:38:07;;;;;;;;;;;;;;;;;;5063731;28;4158;-55
2020/12/30 10:40:33;;;;;;;;;;;;;;;;;;5065300;28;8272;-53
2020/12/30 10:42:58;;;;;;;;;;;;;;;;;;5070763;28;11869;-51
2020/12/30 10:45:23;;;;;;;;;;;;;;;;;;5059246;28;14545;-54
2020/12/30 10:47:48;;;;;;;;;;;;;;;;;;5068931;28;12865;-49
2020/12/30 10:50:14;;;;;;;;;;;;;;;;;;5070508;28;3924;-53
2020/12/30 10:52:39;;;;;;;;;;;;;;;;;;5065939;28;14053;-52
2020/12/30 10:55:05;;;;;;;;;;;;;;;;;;5070479;28;14296;-52
2020/12/30 10:57:30;;;;;;;;;;;;;;;;;;5058886;28;9535;-54
2020/12/30 10:59:55;;;;;;;;;;;;;;;;;;5059550;28;15984;-51
2020/12/30 11:02:20;;;;;;;;;;;;;;;;;;5070119;28;3995;-53
2020/12/30 11:04:46;;;;;;;;;;;;;;;;;;5070138;28;15958;-56
2020/12/30 11:07:11;;;;;;;;;;;;;;;;;;5068555;28;15690;-52
2020/12/30 11:09:36;;;;;;;;;;;;;;;;;;5070947;28;10429;-54
2020/12/30 11:12:01;;;;;;;;;;;;;;;;;;5069949;28;13835;-54
2020/12/30 11:14:28;;;;;;;;;;;;;;;;;;5071263;28;13553;-52
2020/12/30 11:16:54;;;;;;;;;;;;;;;;;;5071251;28;9685;-55
2020/12/30 11:19:19;;;;;;;;;;;;;;;;;;5068856;28;14855;-54
2020/12/30 11:21:51;;;;;;;;;;;;;;;;;;5066671;28;14785;-54
2020/12/30 11:24:16;;;;;;;;;;;;;;;;;;5069320;28;11054;-50
2020/12/30 11:26:46;;;;;;;;;;;;;;;;;;5069453;28;14185;-51
2020/12/30 11:29:11;;;;;;;;;;;;;;;;;;5062338;28;4473;-50
2020/12/30 11:31:37;;;;;;;;;;;;;;;;;;5062850;28;14102;-55
2020/12/30 11:34:02;;;;;;;;;;;;;;;;;;5070339;28;9466;-50
2020/12/30 11:36:28;;;;;;;;;;;;;;;;;;5058252;28;15119;-54
2020/12/30 11:38:53;;;;;;;;;;;;;;;;;;5053877;28;15316;-55
2020/12/30 11:41:18;;;;;;;;;;;;;;;;;;5070621;28;4173;-49
2020/12/30 11:43:43;;;;;;;;;;;;;;;;;;5061296;28;8695;-54
2020/12/30 11:46:09;;;;;;;;;;;;;;;;;;5063165;28;15703;-53
2020/12/30 11:48:34;;;;;;;;;;;;;;;;;;5058866;28;9288;-54
2020/12/30 11:50:59;;;;;;;;;;;;;;;;;;5065412;28;9417;-55
2020/12/30 11:53:24;;;;;;;;;;;;;;;;;;5071464;28;3964;-53
2020/12/30 11:55:50;;;;;;;;;;;;;;;;;;5060139;28;7239;-54
2020/12/30 11:58:15;;;;;;;;;;;;;;;;;;5065791;28;9746;-55
2020/12/30 12:00:40;;;;;;;;;;;;;;;;;;5068849;28;12260;-56
2020/12/30 12:03:05;;;;;;;;;;;;;;;;;;5066160;28;8757;-52
2020/12/30 12:05:31;;;;;;;;;;;;;;;;;;5056494;28;14857;-54
2020/12/30 12:07:56;;;;;;;;;;;;;;;;;;5068156;28;8952;-48
2020/12/30 12:10:21;;;;;;;;;;;;;;;;;;5068425;28;13220;-53
2020/12/30 12:12:46;;;;;;;;;;;;;;;;;;5063609;28;13851;-51
2020/12/30 12:15:12;;;;;;;;;;;;;;;;;;5068453;28;15038;-53
2020/12/30 12:17:37;;;;;;;;;;;;;;;;;;5069109;28;14782;-52
2020/12/30 12:20:03;;;;;;;;;;;;;;;;;;5069425;28;3943;-54
2020/12/30 12:22:29;;;;;;;;;;;;;;;;;;5064350;28;6177;-53
2020/12/30 12:24:55;;;;;;;;;;;;;;;;;;5068235;28;16011;-55
2020/12/30 12:27:20;;;;;;;;;;;;;;;;;;5067848;28;14112;-54
2020/12/30 12:29:49;;;;;;;;;;;;;;;;;;5067419;28;16289;-50
2020/12/30 12:32:19;;;;;;;;;;;;;;;;;;5067781;28;4670;-54
2020/12/30 12:34:45;;;;;;;;;;;;;;;;;;5065418;28;14395;-50
2020/12/30 12:37:11;;;;;;;;;;;;;;;;;;5066438;28;9340;-49
2020/12/30 12:39:38;;;;;;;;;;;;;;;;;;5059675;28;14447;-54
2020/12/30 12:42:03;;;;;;;;;;;;;;;;;;5058911;28;14716;-53
2020/12/30 12:44:29;;;;;;;;;;;;;;;;;;5067629;28;16140;-55
2020/12/30 12:46:55;;;;;;;;;;;;;;;;;;5069086;28;9149;-50
2020/12/30 12:49:20;;;;;;;;;;;;;;;;;;5067607;28;15850;-52
2020/12/30 12:51:46;;;;;;;;;;;;;;;;;;5067459;28;14776;-52
2020/12/30 12:54:11;;;;;;;;;;;;;;;;;;5067402;28;9662;-52
2020/12/30 12:56:37;;;;;;;;;;;;;;;;;;5068250;28;13880;-55
2020/12/30 12:59:02;;;;;;;;;;;;;;;;;;5066642;28;3991;-53
2020/12/30 13:01:27;;;;;;;;;;;;;;;;;;5067464;28;15095;-49
2020/12/30 13:03:54;;;;;;;;;;;;;;;;;;5066347;28;13625;-52
2020/12/30 13:06:27;;;;;;;;;;;;;;;;;;5061125;28;12865;-50
2020/12/30 13:08:52;;;;;;;;;;;;;;;;;;5066676;28;10355;-54
2020/12/30 13:11:17;;;;;;;;;;;;;;;;;;5061450;28;4228;-53
2020/12/30 13:13:43;;;;;;;;;;;;;;;;;;5063523;28;9375;-53
2020/12/30 13:16:08;;;;;;;;;;;;;;;;;;5061412;28;17072;-52
2020/12/30 13:18:33;;;;;;;;;;;;;;;;;;5056853;28;15217;-53
2020/12/30 13:20:58;;;;;;;;;;;;;;;;;;5065383;28;14832;-53
2020/12/30 13:23:24;;;;;;;;;;;;;;;;;;5070479;28;1412;-50
2020/12/30 13:25:49;;;;;;;;;;;;;;;;;;5067137;28;6162;-53
2020/12/30 13:28:14;;;;;;;;;;;;;;;;;;5065862;28;17326;-52
2020/12/30 13:30:40;;;;;;;;;;;;;;;;;;5067328;28;8080;-52
2020/12/30 13:33:05;;;;;;;;;;;;;;;;;;5062716;28;12813;-51
2020/12/30 13:35:30;;;;;;;;;;;;;;;;;;5068325;28;14509;-54
2020/12/30 13:37:55;;;;;;;;;;;;;;;;;;5065917;28;9683;-53
2020/12/30 13:40:21;;;;;;;;;;;;;;;;;;5067822;28;13467;-52
2020/12/30 13:42:46;;;;;;;;;;;;;;;;;;5063004;28;13865;-54
2020/12/30 13:45:11;;;;;;;;;;;;;;;;;;5067381;28;9037;-49
2020/12/30 13:47:36;;;;;;;;;;;;;;;;;;5067392;28;13605;-53
2020/12/30 13:50:02;;;;;;;;;;;;;;;;;;5063612;28;9930;-55
2020/12/30 13:52:27;;;;;;;;;;;;;;;;;;5062887;28;12065;-56
2020/12/30 13:54:53;;;;;;;;;;;;;;;;;;5065330;28;15990;-53
2020/12/30 13:57:18;;;;;;;;;;;;;;;;;;5066474;28;9607;-50
2020/12/30 13:59:43;;;;;;;;;;;;;;;;;;5056448;28;9445;-50
2020/12/30 14:02:08;;;;;;;;;;;;;;;;;;5059366;28;4303;-52
2020/12/30 14:04:34;;;;;;;;;;;;;;;;;;5061816;28;9416;-55
2020/12/30 14:07:00;;;;;;;;;;;;;;;;;;5065130;28;13874;-50
2020/12/30 14:09:25;;;;;;;;;;;;;;;;;;5061462;28;14789;-52
2020/12/30 14:11:50;;;;;;;;;;;;;;;;;;5059270;28;14432;-53
2020/12/30 14:14:15;;;;;;;;;;;;;;;;;;5057870;28;4284;-53
2020/12/30 14:16:41;;;;;;;;;;;;;;;;;;5047927;28;13210;-52
2020/12/30 14:19:07;;;;;;;;;;;;;;;;;;5066691;28;9071;-52
2020/12/30 14:21:32;;;;;;;;;;;;;;;;;;5054979;28;9192;-53
2020/12/30 14:23:57;;;;;;;;;;;;;;;;;;5066739;28;9370;-51
2020/12/30 14:26:23;;;;;;;;;;;;;;;;;;5064474;28;4283;-51
2020/12/30 14:28:48;;;;;;;;;;;;;;;;;;5059798;28;14581;-53
2020/12/30 14:31:14;;;;;;;;;;;;;;;;;;5057923;28;14475;-54
2020/12/30 14:33:39;;;;;;;;;;;;;;;;;;5056131;28;14408;-51
2020/12/30 14:36:04;;;;;;;;;;;;;;;;;;5064102;28;13407;-52
2020/12/30 14:38:29;;;;;;;;;;;;;;;;;;5065658;28;16293;-53
2020/12/30 14:40:55;;;;;;;;;;;;;;;;;;5065557;28;9250;-52
2020/12/30 14:43:20;;;;;;;;;;;;;;;;;;5060551;28;9295;-51
2020/12/30 14:45:45;;;;;;;;;;;;;;;;;;5064824;28;15521;-54
2020/12/30 14:48:11;;;;;;;;;;;;;;;;;;5065086;28;13557;-52
2020/12/30 14:50:36;;;;;;;;;;;;;;;;;;5061469;28;14488;-49
2020/12/30 14:53:01;;;;;;;;;;;;;;;;;;5061522;28;8947;-49
2020/12/30 14:55:27;;;;;;;;;;;;;;;;;;5064425;28;15367;-51
2020/12/30 14:57:53;;;;;;;;;;;;;;;;;;5065266;28;14827;-51
2020/12/30 15:00:18;;;;;;;;;;;;;;;;;;5064540;28;9952;-51
2020/12/30 15:02:45;;;;;;;;;;;;;;;;;;5063185;28;15157;-53
2020/12/30 15:05:10;;;;;;;;;;;;;;;;;;5067930;28;4039;-52
2020/12/30 15:07:35;;;;;;;;;;;;;;;;;;5065375;28;14004;-50
2020/12/30 15:10:00;;;;;;;;;;;;;;;;;;5066256;28;7756;-52
2020/12/30 15:12:26;;;;;;;;;;;;;;;;;;5056561;28;13038;-50
2020/12/30 15:14:51;;;;;;;;;;;;;;;;;;5064532;28;15389;-50
2020/12/30 15:17:16;;;;;;;;;;;;;;;;;;5063327;28;4158;-51
2020/12/30 15:19:44;;;;;;;;;;;;;;;;;;5068474;28;15185;-53
2020/12/30 15:22:09;;;;;;;;;;;;;;;;;;5075133;28;14112;-53
2020/12/30 15:24:34;;;;;;;;;;;;;;;;;;5069708;28;14041;-53
2020/12/30 15:26:59;;;;;;;;;;;;;;;;;;5068451;28;14690;-51
2020/12/30 15:29:25;;;;;;;;;;;;;;;;;;5070833;28;4194;-54
2020/12/30 15:31:50;;;;;;;;;;;;;;;;;;5069491;28;12990;-50
2020/12/30 15:34:15;;;;;;;;;;;;;;;;;;5068081;28;13542;-54
2020/12/30 15:36:41;;;;;;;;;;;;;;;;;;5064283;28;14219;-50
2020/12/30 15:39:06;;;;;;;;;;;;;;;;;;5068415;28;15346;-51
2020/12/30 15:41:31;;;;;;;;;;;;;;;;;;5067417;28;15191;-48
2020/12/30 15:43:57;;;;;;;;;;;;;;;;;;5071720;28;9127;-52
2020/12/30 15:46:22;;;;;;;;;;;;;;;;;;5064870;28;16559;-51
2020/12/30 15:48:47;;;;;;;;;;;;;;;;;;5049818;28;14877;-51
2020/12/30 15:51:14;;;;;;;;;;;;;;;;;;5062090;28;13834;-49
2020/12/30 15:53:39;;;;;;;;;;;;;;;;;;5069804;28;13577;-53
2020/12/30 15:56:08;;;;;;;;;;;;;;;;;;5069991;28;3947;-49
2020/12/30 15:58:33;;;;;;;;;;;;;;;;;;5058706;28;13655;-53
2020/12/30 16:00:58;;;;;;;;;;;;;;;;;;5069438;28;14957;-50
2020/12/30 16:03:24;;;;;;;;;;;;;;;;;;5068940;28;15916;-52
2020/12/30 16:05:49;;;;;;;;;;;;;;;;;;5050527;28;11785;-52
2020/12/30 16:08:16;;;;;;;;;;;;;;;;;;5067060;28;4322;-54
2020/12/30 16:10:41;;;;;;;;;;;;;;;;;;5068822;28;9397;-54
2020/12/30 16:13:07;;;;;;;;;;;;;;;;;;5065015;28;11522;-50
2020/12/30 16:15:32;;;;;;;;;;;;;;;;;;5066765;28;14867;-50
2020/12/30 16:17:57;;;;;;;;;;;;;;;;;;5067651;28;15730;-51
2020/12/30 16:20:22;;;;;;;;;;;;;;;;;;5060053;28;4169;-48
2020/12/30 16:22:48;;;;;;;;;;;;;;;;;;5067893;28;13900;-50
2020/12/30 16:25:13;;;;;;;;;;;;;;;;;;5068910;28;14640;-50
2020/12/30 16:27:38;;;;;;;;;;;;;;;;;;5067580;28;14341;-53
2020/12/30 16:30:04;;;;;;;;;;;;;;;;;;5056676;28;14085;-54
2020/12/30 16:32:29;;;;;;;;;;;;;;;;;;5071250;28;4130;-53
2020/12/30 16:34:54;;;;;;;;;;;;;;;;;;5063158;28;8364;-51
2020/12/30 16:37:19;;;;;;;;;;;;;;;;;;5064270;28;12734;-51
2020/12/30 16:39:45;;;;;;;;;;;;;;;;;;5063722;28;8778;-55
2020/12/30 16:42:10;;;;;;;;;;;;;;;;;;5066965;28;11057;-50
2020/12/30 16:44:35;;;;;;;;;;;;;;;;;;5061350;28;11144;-51
2020/12/30 16:47:01;;;;;;;;;;;;;;;;;;5068668;28;9530;-50